createdAt,value
2022-11-16T00:00:43.441Z,99878.44
2022-11-16T00:03:46.968Z,99880.84
2022-11-16T00:06:49.923Z,99872.56
2022-11-16T00:09:55.681Z,99880.31
2022-11-16T00:12:58.103Z,99875.91
2022-11-16T00:16:01.193Z,99870.72
2022-11-16T00:19:05.670Z,99863.81
2022-11-16T00:22:08.396Z,99863.41
2022-11-16T00:25:10.815Z,99868.88
2022-11-16T00:28:13.635Z,99858.00
2022-11-16T00:31:16.132Z,99856.28
2022-11-16T00:34:19.885Z,99855.13
2022-11-16T00:37:22.328Z,99851.59
2022-11-16T00:40:25.130Z,99842.09
2022-11-16T00:43:28.492Z,99844.59
2022-11-16T00:46:31.171Z,99832.53
2022-11-16T00:49:33.672Z,99835.97
2022-11-16T00:52:36.536Z,99824.72
2022-11-16T00:55:39.304Z,99817.78
2022-11-16T00:58:42.487Z,99821.38
2022-11-16T01:01:45.670Z,99817.16
2022-11-16T01:04:48.492Z,99815.63
2022-11-16T01:07:51.393Z,99807.25
2022-11-16T01:10:54.733Z,99803.31
2022-11-16T01:13:57.182Z,99801.34
2022-11-16T01:17:01.488Z,99799.75
2022-11-16T01:20:06.089Z,99796.47
2022-11-16T01:23:08.850Z,99786.00
2022-11-16T01:26:11.334Z,99775.94
2022-11-16T01:29:15.044Z,99780.00
2022-11-16T01:32:18.739Z,99773.31
2022-11-16T01:35:21.794Z,99778.41
2022-11-16T01:38:28.547Z,99769.78
2022-11-16T01:41:34.537Z,99764.63
2022-11-16T01:44:37.708Z,99765.00
2022-11-16T01:47:41.206Z,99751.06
2022-11-16T01:50:45.544Z,99750.31
2022-11-16T01:53:49.591Z,99736.72
2022-11-16T01:56:54.799Z,99735.03
2022-11-16T02:00:00.404Z,99734.37
2022-11-16T02:03:03.336Z,99731.97
2022-11-16T02:06:22.905Z,99729.59
2022-11-16T02:09:48.272Z,99733.78
2022-11-16T02:13:19.208Z,99724.28
2022-11-16T02:16:53.831Z,99714.75
2022-11-16T02:20:00.302Z,99713.78
2022-11-16T02:23:18.631Z,99722.31
2022-11-16T02:26:49.799Z,99711.94
2022-11-16T02:29:54.921Z,99702.47
2022-11-16T02:33:04.433Z,99706.03
2022-11-16T02:36:12.130Z,99695.56
2022-11-16T02:39:18.717Z,99699.16
2022-11-16T02:42:32.766Z,99694.78
2022-11-16T02:45:41.391Z,99694.72
2022-11-16T02:48:49.344Z,99685.50
2022-11-16T02:51:54.403Z,99682.78
2022-11-16T02:54:57.337Z,99682.78
2022-11-16T02:58:03.838Z,99677.75
2022-11-16T03:01:16.276Z,99667.31
2022-11-16T03:04:28.286Z,99667.84
2022-11-16T03:07:38.593Z,99661.19
2022-11-16T03:11:04.512Z,99662.97
2022-11-16T03:14:12.433Z,99668.28
2022-11-16T03:17:23.743Z,99656.97
2022-11-16T03:20:31.867Z,99656.19
2022-11-16T03:23:34.626Z,99655.28
2022-11-16T03:26:51.200Z,99658.66
2022-11-16T03:30:03.516Z,99651.81
2022-11-16T03:33:21.874Z,99644.63
2022-11-16T03:36:35.259Z,99649.87
2022-11-16T03:39:39.569Z,99642.78
2022-11-16T03:42:44.562Z,99638.81
2022-11-16T03:45:48.987Z,99641.25
2022-11-16T03:48:57.783Z,99636.28
2022-11-16T03:52:00.826Z,99621.84
2022-11-16T03:55:05.326Z,99620.87
2022-11-16T03:58:09.359Z,99617.09
2022-11-16T04:01:13.656Z,99616.09
2022-11-16T04:04:35.255Z,99615.41
2022-11-16T04:07:57.291Z,99605.06
2022-11-16T04:11:19.417Z,99612.75
2022-11-16T04:14:42.874Z,99604.28
2022-11-16T04:18:04.955Z,99598.88
2022-11-16T04:21:35.921Z,99591.94
2022-11-16T04:24:41.523Z,99591.09
2022-11-16T04:28:02.806Z,99589.34
2022-11-16T04:31:25.333Z,99590.94
2022-11-16T04:34:48.093Z,99585.91
2022-11-16T04:37:54.677Z,99578.03
2022-11-16T04:40:57.726Z,99575.34
2022-11-16T04:44:01.126Z,99579.91
2022-11-16T04:47:06.872Z,99576.38
2022-11-16T04:50:10.312Z,99579.66
2022-11-16T04:53:14.638Z,99574.63
2022-11-16T04:56:18.595Z,99577.03
2022-11-16T04:59:22.546Z,99573.66
2022-11-16T05:02:26.084Z,99566.81
2022-11-16T05:05:29.127Z,99570.28
2022-11-16T05:08:32.874Z,99566.22
2022-11-16T05:11:35.796Z,99567.91
2022-11-16T05:14:38.766Z,99569.13
2022-11-16T05:17:41.213Z,99565.06
2022-11-16T05:21:01.060Z,99568.81
2022-11-16T05:24:22.698Z,99566.13
2022-11-16T05:27:26.966Z,99558.69
2022-11-16T05:30:30.273Z,99561.91
2022-11-16T05:33:33.629Z,99558.19
2022-11-16T05:36:36.185Z,99552.44
2022-11-16T05:39:39.412Z,99545.00
2022-11-16T05:42:42.152Z,99548.12
2022-11-16T05:45:45.082Z,99537.75
2022-11-16T05:48:49.347Z,99543.91
2022-11-16T05:51:52.776Z,99530.38
2022-11-16T05:54:55.686Z,99531.22
2022-11-16T05:57:58.652Z,99525.22
2022-11-16T06:01:01.246Z,99522.38
2022-11-16T06:04:04.364Z,99517.16
2022-11-16T06:07:07.520Z,99522.31
2022-11-16T06:10:10.933Z,99513.78
2022-11-16T06:13:14.055Z,99511.94
2022-11-16T06:16:17.415Z,99514.38
2022-11-16T06:19:20.128Z,99517.03
2022-11-16T06:22:23.213Z,99511.72
2022-11-16T06:25:26.015Z,99517.72
2022-11-16T06:28:29.675Z,99520.87
2022-11-16T06:31:32.466Z,99517.53
2022-11-16T06:34:35.956Z,99525.16
2022-11-16T06:37:38.511Z,99525.25
2022-11-16T06:40:42.187Z,99524.09
2022-11-16T06:43:45.164Z,99518.72
2022-11-16T06:46:49.215Z,99517.88
2022-11-16T06:49:51.887Z,99518.47
2022-11-16T06:52:55.553Z,99515.81
2022-11-16T06:56:06.305Z,99506.81
2022-11-16T06:59:10.869Z,99502.12
2022-11-16T07:02:13.988Z,99493.47
2022-11-16T07:05:17.181Z,99493.47
2022-11-16T07:08:20.503Z,99497.87
2022-11-16T07:11:23.436Z,99492.16
2022-11-16T07:14:26.014Z,99487.78
2022-11-16T07:17:28.745Z,99479.12
2022-11-16T07:20:31.648Z,99477.84
2022-11-16T07:23:35.551Z,99485.19
2022-11-16T07:26:38.275Z,99481.75
2022-11-16T07:29:41.387Z,99485.19
2022-11-16T07:32:44.484Z,99482.59
2022-11-16T07:35:47.718Z,99477.44
2022-11-16T07:38:50.710Z,99480.81
2022-11-16T07:41:54.366Z,99475.47
2022-11-16T07:44:57.066Z,99479.53
2022-11-16T07:48:01.049Z,99473.25
2022-11-16T07:51:08.594Z,99464.53
2022-11-16T07:54:15.381Z,99464.19
2022-11-16T07:57:17.775Z,99465.53
2022-11-16T08:00:20.645Z,99464.19
2022-11-16T08:03:24.873Z,99461.16
2022-11-16T08:06:30.511Z,99456.06
2022-11-16T08:09:34.915Z,99448.53
2022-11-16T08:12:37.743Z,99446.94
2022-11-16T08:15:41.273Z,99438.16
2022-11-16T08:18:45.245Z,99436.63
2022-11-16T08:21:48.861Z,99447.81
2022-11-16T08:24:51.518Z,99451.63
2022-11-16T08:27:54.334Z,99447.03
2022-11-16T08:30:59.904Z,99443.06
2022-11-16T08:34:04.122Z,99437.91
2022-11-16T08:37:07.928Z,99443.38
2022-11-16T08:40:12.487Z,99437.78
2022-11-16T08:43:15.276Z,99440.75
2022-11-16T08:46:19.298Z,99444.44
2022-11-16T08:49:23.945Z,99443.56
2022-11-16T08:52:27.735Z,99435.88
2022-11-16T08:55:30.466Z,99439.91
2022-11-16T08:58:33.770Z,99443.09
2022-11-16T09:01:36.752Z,99442.81
2022-11-16T09:04:39.689Z,99436.13
2022-11-16T09:07:44.110Z,99433.28
2022-11-16T09:10:46.892Z,99427.88
2022-11-16T09:13:51.452Z,99426.81
2022-11-16T09:16:54.205Z,99428.09
2022-11-16T09:19:56.773Z,99416.69
2022-11-16T09:22:59.555Z,99420.66
2022-11-16T09:26:06.447Z,99424.91
2022-11-16T09:29:14.164Z,99421.13
2022-11-16T09:32:16.655Z,99418.34
2022-11-16T09:35:20.863Z,99422.03
2022-11-16T09:38:34.892Z,99429.00
2022-11-16T09:42:21.752Z,99417.69
2022-11-16T09:45:33.118Z,99410.03
2022-11-16T09:48:38.841Z,99394.19
2022-11-16T09:51:43.521Z,99387.94
2022-11-16T09:54:47.993Z,99394.03
2022-11-16T09:57:55.469Z,99385.50
2022-11-16T10:01:31.069Z,99391.28
2022-11-16T10:04:43.876Z,99381.31
2022-11-16T10:07:50.193Z,99376.37
2022-11-16T10:11:17.321Z,99369.91
2022-11-16T10:14:41.918Z,99372.88
2022-11-16T10:18:17.234Z,99362.53
2022-11-16T10:21:25.698Z,99358.28
2022-11-16T10:24:59.710Z,99353.56
2022-11-16T10:28:20.995Z,99348.84
2022-11-16T10:31:36.199Z,99344.16
2022-11-16T10:34:51.197Z,99342.78
2022-11-16T10:37:55.466Z,99336.09
2022-11-16T10:41:05.726Z,99331.97
2022-11-16T10:44:36.622Z,99329.31
2022-11-16T10:47:44.712Z,99330.69
2022-11-16T10:50:48.605Z,99321.63
2022-11-16T10:53:53.059Z,99321.81
2022-11-16T10:57:05.135Z,99321.22
2022-11-16T11:00:12.899Z,99313.81
2022-11-16T11:03:31.295Z,99305.66
2022-11-16T11:06:34.169Z,99297.81
2022-11-16T11:09:38.615Z,99296.66
2022-11-16T11:12:42.455Z,99292.66
2022-11-16T11:15:45.458Z,99282.31
2022-11-16T11:18:48.073Z,99277.66
2022-11-16T11:21:56.293Z,99270.41
2022-11-16T11:25:02.057Z,99264.72
2022-11-16T11:28:28.587Z,99271.16
2022-11-16T11:31:38.996Z,99269.31
2022-11-16T11:34:45.686Z,99261.37
2022-11-16T11:37:52.288Z,99262.41
2022-11-16T11:41:00.412Z,99255.03
2022-11-16T11:44:21.155Z,99246.28
2022-11-16T11:48:00.707Z,99244.03
2022-11-16T11:51:15.444Z,99238.09
2022-11-16T11:54:24.964Z,99239.28
2022-11-16T11:57:27.565Z,99229.84
2022-11-16T12:00:57.621Z,99244.78
2022-11-16T12:04:24.642Z,99238.44
2022-11-16T12:07:46.299Z,99228.94
2022-11-16T12:10:53.277Z,99241.44
2022-11-16T12:14:14.560Z,99236.09
2022-11-16T12:17:52.732Z,99232.84
2022-11-16T12:21:03.667Z,99224.91
2022-11-16T12:24:38.700Z,99229.25
2022-11-16T12:28:00.226Z,99232.59
2022-11-16T12:31:30.630Z,99228.25
2022-11-16T12:35:10.771Z,99223.37
2022-11-16T12:39:07.790Z,99230.16
2022-11-16T12:42:27.236Z,99225.94
2022-11-16T12:45:58.343Z,99218.00
2022-11-16T12:49:28.426Z,99213.34
2022-11-16T12:52:34.435Z,99204.16
2022-11-16T12:56:26.002Z,99208.19
2022-11-16T12:59:53.452Z,99200.13
2022-11-16T13:03:23.218Z,99198.38
2022-11-16T13:06:32.027Z,99193.31
2022-11-16T13:09:37.479Z,99197.53
2022-11-16T13:12:43.078Z,99200.87
2022-11-16T13:15:47.929Z,99203.88
2022-11-16T13:18:52.326Z,99204.88
2022-11-16T13:22:05.649Z,99202.41
2022-11-16T13:25:23.043Z,99198.94
2022-11-16T13:28:35.410Z,99196.38
2022-11-16T13:32:00.414Z,99187.75
2022-11-16T13:35:11.943Z,99189.38
2022-11-16T13:38:14.664Z,99191.72
2022-11-16T13:41:30.493Z,99193.81
2022-11-16T13:44:33.708Z,99196.84
2022-11-16T13:47:37.437Z,99197.66
2022-11-16T13:50:46.925Z,99199.50
2022-11-16T13:57:24.764Z,99190.25
2022-11-16T14:00:36.558Z,99190.00
2022-11-16T14:03:47.692Z,99182.00
2022-11-16T14:06:50.063Z,99176.91
2022-11-16T14:09:52.750Z,99179.66
2022-11-16T14:12:55.665Z,99173.00
2022-11-16T14:16:17.214Z,99180.81
2022-11-16T14:19:44.617Z,99180.31
2022-11-16T14:22:53.228Z,99168.16
2022-11-16T14:26:05.653Z,99168.88
2022-11-16T14:29:20.587Z,99169.72
2022-11-16T14:32:28.613Z,99166.47
2022-11-16T14:35:34.137Z,99161.44
2022-11-16T14:38:42.699Z,99164.72
2022-11-16T14:41:46.480Z,99161.38
2022-11-16T14:44:50.323Z,99164.22
2022-11-16T14:48:00.953Z,99163.31
2022-11-16T14:51:08.631Z,99156.47
2022-11-16T14:54:19.899Z,99160.94
2022-11-16T14:57:23.952Z,99155.69
2022-11-16T15:00:26.954Z,99148.13
2022-11-16T15:03:39.007Z,99145.22
2022-11-16T15:06:48.545Z,99139.44
2022-11-16T15:09:55.259Z,99136.84
2022-11-16T15:12:58.126Z,99141.44
2022-11-16T15:16:16.055Z,99139.53
2022-11-16T15:19:20.630Z,99134.25
2022-11-16T15:22:39.171Z,99133.28
2022-11-16T15:25:44.997Z,99137.03
2022-11-16T15:28:50.256Z,99131.09
2022-11-16T15:31:53.222Z,99132.94
2022-11-16T15:34:55.711Z,99131.78
2022-11-16T15:38:17.259Z,99128.38
2022-11-16T15:41:20.889Z,99123.19
2022-11-16T15:44:24.717Z,99128.19
2022-11-16T15:47:27.739Z,99129.03
2022-11-16T15:50:31.358Z,99130.19
2022-11-16T15:53:40.228Z,99120.88
2022-11-16T15:56:42.968Z,99124.09
2022-11-16T15:59:52.063Z,99129.09
2022-11-16T16:03:04.297Z,99132.63
2022-11-16T16:06:13.203Z,99128.44
2022-11-16T16:09:21.334Z,99122.44
2022-11-16T16:12:25.614Z,99122.28
2022-11-16T16:15:29.913Z,99113.44
2022-11-16T16:18:41.786Z,99116.44
2022-11-16T16:21:46.094Z,99117.97
2022-11-16T16:24:48.871Z,99122.19
2022-11-16T16:27:51.340Z,99113.78
2022-11-16T16:30:54.052Z,99114.69
2022-11-16T16:33:56.708Z,99117.59
2022-11-16T16:36:59.464Z,99115.78
2022-11-16T16:40:02.395Z,99120.75
2022-11-16T16:43:05.184Z,99120.75
2022-11-16T16:46:11.042Z,99115.44
2022-11-16T16:49:14.012Z,99110.28
2022-11-16T16:52:17.611Z,99110.88
2022-11-16T16:55:20.463Z,99110.09
2022-11-16T16:58:23.041Z,99110.34
2022-11-16T17:01:26.694Z,99108.69
2022-11-16T17:04:29.308Z,99113.91
2022-11-16T17:07:32.143Z,99111.25
2022-11-16T17:10:34.696Z,99109.44
2022-11-16T17:13:37.547Z,99106.84
2022-11-16T17:16:40.283Z,99099.09
2022-11-16T17:19:43.002Z,99100.19
2022-11-16T17:22:46.012Z,99097.44
2022-11-16T17:25:48.749Z,99096.59
2022-11-16T17:28:55.650Z,99095.75
2022-11-16T17:31:58.355Z,99099.94
2022-11-16T17:35:00.787Z,99096.44
2022-11-16T17:38:03.556Z,99092.19
2022-11-16T17:41:10.636Z,99091.44
2022-11-16T17:44:18.622Z,99086.13
2022-11-16T17:47:23.836Z,99091.50
2022-11-16T17:50:26.617Z,99089.88
2022-11-16T17:53:32.619Z,99084.69
2022-11-16T17:56:35.999Z,99082.34
2022-11-16T17:59:38.513Z,99091.75
2022-11-16T18:02:41.194Z,99084.91
2022-11-16T18:05:44.304Z,99082.12
2022-11-16T18:08:47.648Z,99088.19
2022-11-16T18:11:50.386Z,99077.84
2022-11-16T18:15:21.369Z,99080.19
2022-11-16T18:18:16.571Z,99079.69
2022-11-16T18:21:20.886Z,99076.25
2022-11-16T18:24:23.865Z,99073.59
2022-11-16T18:27:26.504Z,99073.84
2022-11-16T18:30:29.244Z,99069.28
2022-11-16T18:33:32.156Z,99069.53
2022-11-16T18:36:35.347Z,99063.41
2022-11-16T18:39:37.934Z,99076.44
2022-11-16T18:42:41.666Z,99068.44
2022-11-16T18:45:44.206Z,99066.84
2022-11-16T18:48:47.276Z,99069.41
2022-11-16T18:51:49.778Z,99067.75
2022-11-16T18:54:52.503Z,99071.28
2022-11-16T18:57:54.898Z,99067.75
2022-11-16T19:01:05.606Z,99072.91
2022-11-16T19:04:08.796Z,99074.59
2022-11-16T19:07:11.636Z,99074.59
2022-11-16T19:10:14.718Z,99076.25
2022-11-16T19:13:17.503Z,99073.44
2022-11-16T19:16:19.992Z,99067.34
2022-11-16T19:19:22.980Z,99065.09
2022-11-16T19:22:25.650Z,99060.19
2022-11-16T19:25:28.405Z,99064.59
2022-11-16T19:28:38.239Z,99067.41
2022-11-16T19:31:41.078Z,99063.94
2022-11-16T19:34:43.565Z,99058.84
2022-11-16T19:37:46.244Z,99060.31
2022-11-16T19:40:51.137Z,99055.09
2022-11-16T19:43:59.660Z,99051.44
2022-11-16T19:47:02.199Z,99047.19
2022-11-16T19:50:06.920Z,99047.25
2022-11-16T19:53:09.450Z,99049.84
2022-11-16T19:56:14.734Z,99043.91
2022-11-16T19:59:17.224Z,99051.66
2022-11-16T20:02:20.034Z,99047.41
2022-11-16T20:05:23.584Z,99054.09
2022-11-16T20:08:26.043Z,99050.59
2022-11-16T20:11:30.565Z,99047.25
2022-11-16T20:14:33.039Z,99051.59
2022-11-16T20:17:35.782Z,99049.09
2022-11-16T20:20:38.209Z,99055.78
2022-11-16T20:23:40.975Z,99056.69
2022-11-16T20:26:46.723Z,99055.09
2022-11-16T20:29:49.431Z,99049.09
2022-11-16T20:32:51.894Z,99055.91
2022-11-16T20:36:10.125Z,99055.09
2022-11-16T20:39:17.630Z,99052.56
2022-11-16T20:42:20.368Z,99042.09
2022-11-16T20:45:22.822Z,99033.25
2022-11-16T20:48:25.507Z,99036.75
2022-11-16T20:51:29.137Z,99032.53
2022-11-16T20:54:32.120Z,99023.19
2022-11-16T20:57:34.600Z,99024.09
2022-11-16T21:00:37.498Z,99025.75
2022-11-16T21:03:40.499Z,99036.03
2022-11-16T21:06:43.573Z,99039.34
2022-11-16T21:10:04.830Z,99037.69
2022-11-16T21:13:31.856Z,99034.34
2022-11-16T21:16:34.770Z,99030.78
2022-11-16T21:19:37.509Z,99027.19
2022-11-16T21:22:39.978Z,99025.69
2022-11-16T21:25:42.677Z,99035.94
2022-11-16T21:28:45.566Z,99021.25
2022-11-16T21:31:48.607Z,99023.84
2022-11-16T21:34:51.098Z,99017.03
2022-11-16T21:37:53.749Z,99018.53
2022-11-16T21:40:56.165Z,99008.13
2022-11-16T21:43:58.902Z,99003.59
2022-11-16T21:47:01.380Z,99007.28
2022-11-16T21:53:26.916Z,99000.38
2022-11-16T21:56:29.618Z,98987.25
2022-11-16T21:59:32.046Z,98977.94
2022-11-16T22:02:34.764Z,98973.78
2022-11-16T22:05:56.164Z,98973.78
2022-11-16T22:08:59.336Z,98978.09
2022-11-16T22:12:05.282Z,98977.28
2022-11-16T22:15:08.312Z,98982.78
2022-11-16T22:18:11.262Z,98982.19
2022-11-16T22:21:13.821Z,98986.84
2022-11-16T22:24:16.530Z,98981.13
2022-11-16T22:27:19.460Z,98975.34
2022-11-16T22:30:22.199Z,98988.28
2022-11-16T22:33:24.956Z,99002.19
2022-11-16T22:36:27.714Z,99008.13
2022-11-16T22:39:30.190Z,99008.94
2022-11-16T22:42:32.898Z,99005.88
2022-11-16T22:45:35.278Z,99004.78
2022-11-16T22:48:40.002Z,98995.28
2022-11-16T22:51:42.419Z,98994.50
2022-11-16T22:54:45.134Z,98995.28
2022-11-16T22:57:47.583Z,98985.78
2022-11-16T23:00:51.800Z,98983.12
2022-11-16T23:03:54.644Z,98984.88
2022-11-16T23:06:57.525Z,98991.78
2022-11-16T23:10:00.097Z,98992.50
2022-11-16T23:13:21.408Z,98982.78
2022-11-16T23:16:23.854Z,98980.19
2022-11-16T23:19:45.522Z,98980.28
2022-11-16T23:23:07.098Z,98982.03
2022-11-16T23:26:33.994Z,98969.19
2022-11-16T23:29:36.666Z,98971.78
2022-11-16T23:32:39.622Z,98972.78
2022-11-16T23:35:42.004Z,98970.94
2022-11-16T23:38:44.734Z,98977.19
2022-11-16T23:42:05.790Z,98978.03
2022-11-16T23:45:08.904Z,98971.28
2022-11-16T23:48:13.818Z,98987.44
2022-11-16T23:51:18.689Z,98982.28
2022-11-16T23:54:21.192Z,98982.44
2022-11-16T23:57:23.863Z,98979.84
